Time;durP1;ratioP1;P1;durP2;ratioP2;P2;SDS_P1;SDS_P2;PMS_P1;PMS_P2;Temp;Humidity;BMP_temperature;BMP_pressure;BME280_temperature;BME280_humidity;BME280_pressure;Samples;Min_cycle;Max_cycle;Signal;HPM_P1;HPM_P2
2021/03/31 00:01:04;;;;;;;40.00;21.40;;;;;;;;;;8325945;28;20473;-70
2021/03/31 00:05:09;;;;;;;37.95;20.40;;;;;;;;;;8328365;28;20378;-71
2021/03/31 00:09:14;;;;;;;38.40;19.70;;;;;;;;;;8326032;28;20630;-71
2021/03/31 00:13:20;;;;;;;39.03;18.50;;;;;;;;;;8307251;28;20390;-71
2021/03/31 00:17:27;;;;;;;38.95;20.38;;;;;;;;;;8325865;28;20467;-71
2021/03/31 00:21:34;;;;;;;37.92;19.55;;;;;;;;;;8324449;28;20477;-70
2021/03/31 00:25:42;;;;;;;39.30;19.67;;;;;;;;;;8328075;28;20454;-70
2021/03/31 00:29:48;;;;;;;37.28;19.05;;;;;;;;;;8327005;28;20056;-70
2021/03/31 00:33:52;;;;;;;41.42;19.00;;;;;;;;;;8325109;28;20040;-70
2021/03/31 00:37:57;;;;;;;42.38;20.85;;;;;;;;;;8324668;28;20056;-71
2021/03/31 00:42:00;;;;;;;45.00;22.35;;;;;;;;;;8324239;28;20040;-72
2021/03/31 00:46:04;;;;;;;44.72;22.90;;;;;;;;;;8324719;28;20454;-70
2021/03/31 00:50:16;;;;;;;38.40;20.88;;;;;;;;;;8326031;28;20070;-70
2021/03/31 00:54:20;;;;;;;45.28;22.85;;;;;;;;;;8324329;28;20379;-71
2021/03/31 00:58:25;;;;;;;39.17;19.50;;;;;;;;;;8321231;28;20469;-70
2021/03/31 01:02:30;;;;;;;36.58;20.50;;;;;;;;;;8318526;28;20493;-72
2021/03/31 01:06:33;;;;;;;48.03;21.63;;;;;;;;;;8293077;28;20431;-70
2021/03/31 01:10:49;;;;;;;37.38;19.75;;;;;;;;;;8290352;28;20390;-70
2021/03/31 01:15:42;;;;;;;34.90;19.48;;;;;;;;;;8290041;28;20416;-70
2021/03/31 01:20:04;;;;;;;40.05;19.25;;;;;;;;;;8289403;28;20044;-70
2021/03/31 01:24:30;;;;;;;30.70;17.15;;;;;;;;;;8290677;28;20447;-72
2021/03/31 01:29:03;;;;;;;37.13;18.58;;;;;;;;;;8290088;28;20463;-70
2021/03/31 01:33:18;;;;;;;40.90;19.35;;;;;;;;;;8290720;28;20375;-70
2021/03/31 01:37:35;;;;;;;30.92;17.63;;;;;;;;;;8289371;28;20451;-70
2021/03/31 01:41:40;;;;;;;30.55;16.50;;;;;;;;;;8289543;28;20450;-72
2021/03/31 01:45:54;;;;;;;29.85;16.98;;;;;;;;;;8289067;28;20467;-71
2021/03/31 01:50:02;;;;;;;35.60;16.15;;;;;;;;;;8289030;28;20383;-70
2021/03/31 01:54:07;;;;;;;31.25;16.60;;;;;;;;;;8290341;28;20056;-70
2021/03/31 01:58:11;;;;;;;25.58;14.77;;;;;;;;;;8288888;28;20490;-69
2021/03/31 02:02:16;;;;;;;31.33;15.80;;;;;;;;;;8289412;28;20390;-71
2021/03/31 02:06:21;;;;;;;31.98;15.65;;;;;;;;;;8288558;28;20340;-69
2021/03/31 02:10:28;;;;;;;29.45;16.58;;;;;;;;;;8288265;28;20392;-74
2021/03/31 02:14:40;;;;;;;30.25;15.65;;;;;;;;;;8288647;28;20364;-72
2021/03/31 02:18:45;;;;;;;29.65;15.48;;;;;;;;;;8288546;28;20501;-71
2021/03/31 02:22:50;;;;;;;37.22;17.02;;;;;;;;;;8287796;28;20049;-72
2021/03/31 02:26:53;;;;;;;34.10;17.63;;;;;;;;;;8288869;28;20359;-71
2021/03/31 02:30:58;;;;;;;39.25;18.98;;;;;;;;;;8289078;28;20070;-71
2021/03/31 02:35:05;;;;;;;34.70;17.30;;;;;;;;;;8289633;28;20388;-73
2021/03/31 02:39:12;;;;;;;26.55;15.70;;;;;;;;;;8289546;28;20491;-72
2021/03/31 02:43:17;;;;;;;31.52;16.10;;;;;;;;;;8287614;28;20074;-71
2021/03/31 02:47:28;;;;;;;28.75;15.60;;;;;;;;;;8294904;28;20474;-71
2021/03/31 02:51:37;;;;;;;34.17;16.02;;;;;;;;;;8294969;28;20390;-72
2021/03/31 02:55:41;;;;;;;28.65;16.20;;;;;;;;;;8293683;28;20052;-71
2021/03/31 02:59:46;;;;;;;37.50;17.58;;;;;;;;;;8297100;28;20041;-71
2021/03/31 03:03:51;;;;;;;36.47;18.33;;;;;;;;;;8294698;28;20482;-72
2021/03/31 03:07:57;;;;;;;35.92;19.98;;;;;;;;;;8293663;28;20375;-71
2021/03/31 03:12:02;;;;;;;38.47;18.98;;;;;;;;;;8277253;28;20370;-72
2021/03/31 03:16:08;;;;;;;29.67;16.83;;;;;;;;;;8277297;28;20086;-71
2021/03/31 03:20:14;;;;;;;38.35;17.15;;;;;;;;;;8277913;28;20498;-71
2021/03/31 03:24:18;;;;;;;54.28;24.30;;;;;;;;;;8293909;28;20427;-72
2021/03/31 03:28:26;;;;;;;38.65;20.08;;;;;;;;;;8293131;28;20377;-73
2021/03/31 03:32:30;;;;;;;44.22;21.05;;;;;;;;;;8295348;28;20359;-71
2021/03/31 03:36:40;;;;;;;37.20;19.67;;;;;;;;;;8292449;28;20052;-72
2021/03/31 03:40:45;;;;;;;44.05;21.98;;;;;;;;;;8291269;28;20459;-72
2021/03/31 03:44:50;;;;;;;45.85;21.77;;;;;;;;;;8275642;28;20475;-71
2021/03/31 03:49:00;;;;;;;44.63;21.67;;;;;;;;;;8274900;28;20361;-72
2021/03/31 03:53:04;;;;;;;37.20;19.05;;;;;;;;;;8294405;28;20397;-71
2021/03/31 03:57:08;;;;;;;36.50;19.85;;;;;;;;;;8292588;28;20359;-71
2021/03/31 04:01:13;;;;;;;41.70;21.42;;;;;;;;;;8292868;28;20052;-72
2021/03/31 04:05:17;;;;;;;40.75;20.02;;;;;;;;;;8293591;28;20375;-72
2021/03/31 04:09:22;;;;;;;46.33;21.02;;;;;;;;;;8292199;28;20501;-72
2021/03/31 04:13:29;;;;;;;51.35;22.33;;;;;;;;;;8292954;28;20456;-72
2021/03/31 04:17:40;;;;;;;46.78;21.95;;;;;;;;;;8291591;28;20071;-71
2021/03/31 04:21:45;;;;;;;44.05;19.45;;;;;;;;;;8293350;28;20498;-71
2021/03/31 04:25:50;;;;;;;59.42;24.67;;;;;;;;;;8293740;28;20067;-72
2021/03/31 04:29:55;;;;;;;86.88;30.33;;;;;;;;;;8289958;28;20509;-71
2021/03/31 04:34:02;;;;;;;49.00;23.63;;;;;;;;;;8291981;28;20494;-72
2021/03/31 04:38:13;;;;;;;41.22;21.00;;;;;;;;;;8291951;28;20372;-71
2021/03/31 04:42:17;;;;;;;49.72;21.98;;;;;;;;;;8290847;28;20459;-71
2021/03/31 04:46:21;;;;;;;43.25;20.67;;;;;;;;;;8291866;28;20477;-71
2021/03/31 04:50:26;;;;;;;41.50;19.67;;;;;;;;;;8291436;28;20456;-71
2021/03/31 04:54:30;;;;;;;36.45;17.52;;;;;;;;;;8307330;28;20459;-71
2021/03/31 04:58:36;;;;;;;47.92;19.35;;;;;;;;;;8292515;28;20337;-72
2021/03/31 05:02:41;;;;;;;37.95;17.75;;;;;;;;;;8307414;28;20460;-71
2021/03/31 05:06:45;;;;;;;61.72;20.65;;;;;;;;;;8289335;28;20479;-72
2021/03/31 05:10:49;;;;;;;39.90;19.90;;;;;;;;;;8291299;28;20067;-71
2021/03/31 05:14:53;;;;;;;39.40;19.77;;;;;;;;;;8289978;28;20048;-71
2021/03/31 05:18:56;;;;;;;37.78;19.52;;;;;;;;;;8290445;28;20044;-72
2021/03/31 05:23:00;;;;;;;36.47;18.17;;;;;;;;;;8290452;28;20479;-71
2021/03/31 05:27:05;;;;;;;36.08;19.95;;;;;;;;;;8291020;28;20045;-72
2021/03/31 05:31:10;;;;;;;43.58;20.20;;;;;;;;;;8292225;28;20479;-71
2021/03/31 05:35:15;;;;;;;52.92;23.17;;;;;;;;;;8289591;28;20359;-71
2021/03/31 05:39:20;;;;;;;43.45;21.77;;;;;;;;;;8288741;28;20052;-72
2021/03/31 05:43:24;;;;;;;49.17;25.02;;;;;;;;;;8290580;28;20470;-71
2021/03/31 05:47:32;;;;;;;44.25;23.92;;;;;;;;;;8290045;28;20379;-72
2021/03/31 05:51:36;;;;;;;54.63;26.77;;;;;;;;;;8289308;28;20505;-72
2021/03/31 05:55:40;;;;;;;51.60;28.40;;;;;;;;;;8291086;28;20356;-72
2021/03/31 05:59:45;;;;;;;52.15;27.55;;;;;;;;;;8291956;28;20370;-72
2021/03/31 06:03:50;;;;;;;50.40;28.75;;;;;;;;;;8274566;28;20456;-70
2021/03/31 06:07:55;;;;;;;49.83;26.25;;;;;;;;;;8288856;28;20048;-71
2021/03/31 06:12:02;;;;;;;48.88;27.02;;;;;;;;;;8292822;28;20049;-71
2021/03/31 06:16:37;;;;;;;49.67;26.02;;;;;;;;;;8290758;28;20052;-71
2021/03/31 06:20:50;;;;;;;47.85;27.25;;;;;;;;;;8296212;28;20363;-71
2021/03/31 06:25:16;;;;;;;49.80;27.58;;;;;;;;;;8297430;28;20453;-71
2021/03/31 06:29:21;;;;;;;54.60;28.60;;;;;;;;;;8297965;28;20358;-71
2021/03/31 06:33:27;;;;;;;58.03;28.80;;;;;;;;;;8295921;28;20490;-71
2021/03/31 06:37:35;;;;;;;55.65;27.23;;;;;;;;;;8294809;28;20371;-71
2021/03/31 06:42:07;;;;;;;57.47;28.40;;;;;;;;;;8294951;28;20375;-72
2021/03/31 06:46:19;;;;;;;45.75;24.80;;;;;;;;;;8311436;28;20048;-71
2021/03/31 06:50:25;;;;;;;48.70;26.08;;;;;;;;;;8297666;28;20569;-71
2021/03/31 06:54:50;;;;;;;49.03;25.58;;;;;;;;;;8296230;28;20115;-72
2021/03/31 06:59:01;;;;;;;47.92;24.20;;;;;;;;;;8293703;28;20379;-71
2021/03/31 07:03:08;;;;;;;48.28;24.23;;;;;;;;;;8296732;28;20474;-71
2021/03/31 07:07:14;;;;;;;53.88;25.50;;;;;;;;;;8280399;28;20525;-71
2021/03/31 07:11:41;;;;;;;50.90;25.83;;;;;;;;;;8296984;28;20041;-72
2021/03/31 07:15:46;;;;;;;49.05;24.95;;;;;;;;;;8293896;28;20458;-73
2021/03/31 07:19:51;;;;;;;54.42;26.80;;;;;;;;;;8293941;28;20520;-71
2021/03/31 07:23:56;;;;;;;59.30;25.80;;;;;;;;;;8296462;28;20599;-72
2021/03/31 07:28:02;;;;;;;55.15;26.23;;;;;;;;;;8293249;28;20067;-72
2021/03/31 07:32:09;;;;;;;53.47;28.17;;;;;;;;;;8293296;28;20141;-72
2021/03/31 07:36:14;;;;;;;52.40;29.33;;;;;;;;;;8292493;28;20378;-73
2021/03/31 07:40:20;;;;;;;57.40;29.00;;;;;;;;;;8292300;28;20339;-71
2021/03/31 07:44:33;;;;;;;51.22;27.65;;;;;;;;;;8290390;28;20356;-72
2021/03/31 07:48:39;;;;;;;51.38;27.40;;;;;;;;;;8292858;28;20387;-71
2021/03/31 07:52:57;;;;;;;55.03;26.23;;;;;;;;;;8290622;28;20368;-71
2021/03/31 07:57:30;;;;;;;55.92;27.38;;;;;;;;;;8292899;28;20375;-71
2021/03/31 08:01:45;;;;;;;55.20;27.25;;;;;;;;;;8291474;28;20467;-72
2021/03/31 08:06:23;;;;;;;46.53;24.58;;;;;;;;;;8292383;28;20482;-71
2021/03/31 08:10:36;;;;;;;45.42;24.50;;;;;;;;;;8249378;28;20391;-71
2021/03/31 08:14:44;;;;;;;58.58;25.67;;;;;;;;;;8295319;28;20569;-71
2021/03/31 08:19:17;;;;;;;50.35;23.75;;;;;;;;;;8294826;28;20474;-72
2021/03/31 08:23:48;;;;;;;49.22;22.92;;;;;;;;;;8297101;28;20455;-71
2021/03/31 08:28:03;;;;;;;35.03;19.50;;;;;;;;;;8288258;28;20383;-71
2021/03/31 08:32:08;;;;;;;38.67;20.20;;;;;;;;;;8292112;28;20053;-72
2021/03/31 08:36:12;;;;;;;39.58;21.23;;;;;;;;;;8291044;28;20463;-72
2021/03/31 08:40:18;;;;;;;36.67;18.85;;;;;;;;;;8291658;28;20075;-72
2021/03/31 08:44:47;;;;;;;40.00;18.60;;;;;;;;;;8289541;28;20478;-71
2021/03/31 08:48:54;;;;;;;36.75;18.77;;;;;;;;;;8292035;28;20513;-71
2021/03/31 08:53:03;;;;;;;29.25;17.02;;;;;;;;;;8292073;28;20372;-71
2021/03/31 08:57:16;;;;;;;34.50;16.38;;;;;;;;;;8275856;28;20443;-72
2021/03/31 09:01:31;;;;;;;57.28;30.52;;;;;;;;;;8291805;28;20376;-71
2021/03/31 09:05:34;;;;;;;23.83;14.40;;;;;;;;;;8289972;28;20076;-71
2021/03/31 09:09:40;;;;;;;35.03;17.75;;;;;;;;;;8289790;28;20383;-72
2021/03/31 09:13:52;;;;;;;24.67;14.00;;;;;;;;;;8306727;28;20359;-72
2021/03/31 09:17:56;;;;;;;24.17;13.27;;;;;;;;;;8290472;28;20052;-71
2021/03/31 09:22:14;;;;;;;24.40;12.20;;;;;;;;;;8272043;28;20060;-71
2021/03/31 09:26:22;;;;;;;19.27;10.30;;;;;;;;;;8289767;28;20533;-72
2021/03/31 09:30:26;;;;;;;17.75;8.70;;;;;;;;;;8290638;28;20048;-71
2021/03/31 09:34:33;;;;;;;15.48;9.30;;;;;;;;;;8290198;28;20044;-71
2021/03/31 09:38:38;;;;;;;12.40;7.55;;;;;;;;;;8291167;28;20467;-71
2021/03/31 09:42:46;;;;;;;16.50;7.90;;;;;;;;;;8292995;28;20074;-71
2021/03/31 09:46:51;;;;;;;16.08;7.97;;;;;;;;;;8289568;28;20074;-71
2021/03/31 09:50:59;;;;;;;16.65;9.85;;;;;;;;;;8272916;28;20351;-71
2021/03/31 09:55:13;;;;;;;15.68;8.13;;;;;;;;;;8296769;28;20052;-71
2021/03/31 09:59:21;;;;;;;14.63;8.40;;;;;;;;;;8298933;28;20467;-71
2021/03/31 10:03:29;;;;;;;20.48;8.43;;;;;;;;;;8302507;28;20044;-71
2021/03/31 10:07:33;;;;;;;16.90;8.40;;;;;;;;;;8301194;28;20459;-71
2021/03/31 10:11:39;;;;;;;20.05;8.82;;;;;;;;;;8284702;28;20467;-71
2021/03/31 10:15:57;;;;;;;16.33;8.75;;;;;;;;;;8298304;28;20390;-72
2021/03/31 10:20:11;;;;;;;14.00;7.35;;;;;;;;;;8299358;28;20360;-73
2021/03/31 10:24:36;;;;;;;15.77;7.57;;;;;;;;;;8302040;28;20451;-71
2021/03/31 10:28:43;;;;;;;33.53;22.40;;;;;;;;;;8301447;28;20459;-71
2021/03/31 10:32:58;;;;;;;16.75;10.50;;;;;;;;;;8302559;28;20048;-72
2021/03/31 10:37:06;;;;;;;17.83;7.65;;;;;;;;;;8302043;28;20444;-71
2021/03/31 10:41:34;;;;;;;15.95;7.80;;;;;;;;;;8304175;28;20451;-71
2021/03/31 10:50:04;;;;;;;13.40;7.20;;;;;;;;;;8300551;28;20355;-71
2021/03/31 10:54:15;;;;;;;14.88;7.25;;;;;;;;;;8300339;28;20052;-71
2021/03/31 10:58:19;;;;;;;19.25;9.60;;;;;;;;;;8300312;28;20464;-71
2021/03/31 11:02:24;;;;;;;14.45;7.72;;;;;;;;;;8300847;28;20331;-71
2021/03/31 11:06:31;;;;;;;24.65;11.48;;;;;;;;;;8292729;28;20409;-71
2021/03/31 11:10:34;;;;;;;15.55;8.77;;;;;;;;;;8294182;28;20458;-71
2021/03/31 11:14:38;;;;;;;18.42;8.50;;;;;;;;;;8294315;28;20439;-71
2021/03/31 11:19:01;;;;;;;18.98;8.27;;;;;;;;;;8295017;28;20455;-71
2021/03/31 11:27:28;;;;;;;19.80;8.48;;;;;;;;;;8294863;28;20471;-72
2021/03/31 11:31:35;;;;;;;19.58;10.20;;;;;;;;;;8293958;28;20479;-71
2021/03/31 11:35:41;;;;;;;19.67;10.90;;;;;;;;;;8295052;28;20430;-72
2021/03/31 11:39:45;;;;;;;10.35;6.10;;;;;;;;;;8294489;28;20475;-71
2021/03/31 11:43:50;;;;;;;10.15;4.35;;;;;;;;;;8310149;28;20479;-71
2021/03/31 11:47:54;;;;;;;6.30;3.55;;;;;;;;;;8294373;28;20459;-71
2021/03/31 11:51:59;;;;;;;7.40;3.75;;;;;;;;;;8296573;28;20343;-70
2021/03/31 11:56:04;;;;;;;9.88;4.93;;;;;;;;;;8294748;28;20056;-71
2021/03/31 12:00:08;;;;;;;7.63;2.45;;;;;;;;;;8294407;28;20552;-71
2021/03/31 12:04:12;;;;;;;11.45;5.15;;;;;;;;;;8292581;28;20074;-71
2021/03/31 12:08:18;;;;;;;12.20;5.40;;;;;;;;;;8294520;28;20052;-70
2021/03/31 12:12:22;;;;;;;9.93;4.68;;;;;;;;;;8291285;28;20479;-70
2021/03/31 12:16:27;;;;;;;9.32;5.22;;;;;;;;;;8291170;28;20078;-70
2021/03/31 12:20:35;;;;;;;10.23;5.30;;;;;;;;;;8294518;28;20470;-71
2021/03/31 12:24:39;;;;;;;10.98;5.85;;;;;;;;;;8292752;28;20044;-70
2021/03/31 12:28:49;;;;;;;18.60;8.88;;;;;;;;;;8293944;28;20052;-70
2021/03/31 12:32:54;;;;;;;19.05;8.68;;;;;;;;;;8296653;28;20402;-69
2021/03/31 12:36:58;;;;;;;18.08;8.48;;;;;;;;;;8293579;28;20419;-70
2021/03/31 12:41:04;;;;;;;16.48;8.98;;;;;;;;;;8292471;28;20071;-70
2021/03/31 12:45:09;;;;;;;16.20;7.88;;;;;;;;;;8292705;28;20344;-70
2021/03/31 12:49:16;;;;;;;16.73;9.45;;;;;;;;;;8291625;28;20479;-70
2021/03/31 12:53:23;;;;;;;13.73;8.02;;;;;;;;;;8292185;28;20439;-70
2021/03/31 12:57:29;;;;;;;11.68;6.53;;;;;;;;;;8308026;28;20350;-70
2021/03/31 13:01:33;;;;;;;20.38;7.10;;;;;;;;;;8293508;28;20445;-69
2021/03/31 13:05:58;;;;;;;21.75;8.93;;;;;;;;;;8293388;28;20463;-70
2021/03/31 13:10:11;;;;;;;16.15;7.47;;;;;;;;;;8293276;28;20057;-70
2021/03/31 13:28:35;;;;;;;13.93;5.57;;;;;;;;;;8284096;28;20062;-70
2021/03/31 13:32:41;;;;;;;10.80;6.03;;;;;;;;;;8290460;28;20410;-71
2021/03/31 13:36:50;;;;;;;11.40;5.90;;;;;;;;;;8291489;28;20387;-70
2021/03/31 13:40:54;;;;;;;33.97;14.13;;;;;;;;;;8290072;28;20443;-70
2021/03/31 13:45:00;;;;;;;36.15;16.13;;;;;;;;;;8291261;28;20467;-69
2021/03/31 13:49:10;;;;;;;23.75;10.88;;;;;;;;;;8290707;28;20358;-70
2021/03/31 13:53:36;;;;;;;13.20;5.20;;;;;;;;;;8305198;28;20451;-69
2021/03/31 13:57:44;;;;;;;14.73;6.07;;;;;;;;;;8291227;28;20359;-71
2021/03/31 14:01:48;;;;;;;20.45;5.85;;;;;;;;;;8290516;28;20440;-70
2021/03/31 14:06:12;;;;;;;29.70;12.32;;;;;;;;;;8289638;28;20469;-70
2021/03/31 14:10:37;;;;;;;57.63;22.67;;;;;;;;;;8288709;28;20370;-70
2021/03/31 14:14:42;;;;;;;23.27;10.90;;;;;;;;;;8289701;28;20467;-70
2021/03/31 14:19:07;;;;;;;10.30;5.03;;;;;;;;;;8304977;28;20583;-70
2021/03/31 14:23:13;;;;;;;13.50;5.25;;;;;;;;;;8289441;28;20463;-70
2021/03/31 14:27:20;;;;;;;10.52;5.20;;;;;;;;;;8304455;28;20489;-70
2021/03/31 14:31:35;;;;;;;11.05;5.82;;;;;;;;;;8306062;28;20398;-70
2021/03/31 14:35:59;;;;;;;15.85;6.82;;;;;;;;;;8288990;28;20044;-71
2021/03/31 14:40:23;;;;;;;12.63;5.68;;;;;;;;;;8290237;28;20435;-71
2021/03/31 14:44:28;;;;;;;15.20;7.20;;;;;;;;;;8296334;28;20059;-70
2021/03/31 14:48:35;;;;;;;15.27;6.90;;;;;;;;;;8297032;28;20459;-69
2021/03/31 14:57:32;;;;;;;16.17;6.75;;;;;;;;;;8294827;28;20475;-70
2021/03/31 15:01:36;;;;;;;19.70;6.97;;;;;;;;;;8295099;28;20066;-70
2021/03/31 15:05:39;;;;;;;12.30;5.95;;;;;;;;;;8294094;28;20371;-71
2021/03/31 15:09:43;;;;;;;18.27;5.53;;;;;;;;;;8294616;28;20497;-70
2021/03/31 15:13:48;;;;;;;16.45;6.40;;;;;;;;;;8294090;28;20056;-71
2021/03/31 15:18:12;;;;;;;12.50;5.68;;;;;;;;;;8292630;28;20448;-70
2021/03/31 15:22:43;;;;;;;16.55;5.18;;;;;;;;;;8295653;28;20486;-70
2021/03/31 15:26:48;;;;;;;21.75;5.65;;;;;;;;;;8293230;28;20514;-70
2021/03/31 15:31:17;;;;;;;14.77;5.55;;;;;;;;;;8292594;28;20041;-70
2021/03/31 15:35:38;;;;;;;13.45;6.70;;;;;;;;;;8293820;28;20481;-70
2021/03/31 15:39:47;;;;;;;12.20;4.80;;;;;;;;;;8292268;28;20432;-69
2021/03/31 15:43:56;;;;;;;14.88;5.00;;;;;;;;;;8296314;28;20052;-70
2021/03/31 15:48:09;;;;;;;11.02;4.60;;;;;;;;;;8293244;28;20471;-70
2021/03/31 15:52:18;;;;;;;14.32;4.55;;;;;;;;;;8291259;28;20048;-70
2021/03/31 15:56:28;;;;;;;8.52;4.30;;;;;;;;;;8291332;28;20901;-70
2021/03/31 16:00:37;;;;;;;11.88;4.80;;;;;;;;;;8291061;28;20103;-70
2021/03/31 16:04:46;;;;;;;9.57;4.70;;;;;;;;;;8292854;28;20378;-70
2021/03/31 16:08:55;;;;;;;13.30;4.70;;;;;;;;;;8292467;28;20200;-69
2021/03/31 16:13:05;;;;;;;16.02;5.25;;;;;;;;;;8290142;28;20366;-69
2021/03/31 16:17:15;;;;;;;14.32;5.40;;;;;;;;;;8292162;28;20107;-70
2021/03/31 16:21:24;;;;;;;15.35;5.97;;;;;;;;;;8309010;28;20329;-70
2021/03/31 16:25:33;;;;;;;22.20;5.88;;;;;;;;;;8291042;28;20048;-70
2021/03/31 16:29:54;;;;;;;19.33;7.00;;;;;;;;;;8291468;28;20367;-69
2021/03/31 16:34:07;;;;;;;24.35;9.35;;;;;;;;;;8291665;28;20067;-70
2021/03/31 16:38:16;;;;;;;15.43;6.45;;;;;;;;;;8290412;28;20581;-70
2021/03/31 16:42:25;;;;;;;30.45;9.10;;;;;;;;;;8303014;28;20460;-69
2021/03/31 16:46:35;;;;;;;73.68;23.50;;;;;;;;;;8305206;28;20048;-70
2021/03/31 16:50:44;;;;;;;64.22;20.23;;;;;;;;;;8287243;28;20079;-69
2021/03/31 16:54:53;;;;;;;50.88;18.00;;;;;;;;;;8290174;28;20447;-69
2021/03/31 16:59:04;;;;;;;30.77;14.23;;;;;;;;;;8290713;28;20327;-69
2021/03/31 17:03:13;;;;;;;28.85;14.68;;;;;;;;;;8290212;28;20458;-69
2021/03/31 17:07:22;;;;;;;68.05;34.33;;;;;;;;;;8290369;28;20063;-69
2021/03/31 17:11:32;;;;;;;82.88;40.00;;;;;;;;;;8287627;28;20489;-70
2021/03/31 17:21:09;;;;;;;208.95;106.70;;;;;;;;;;8290587;28;20044;-69
2021/03/31 17:25:19;;;;;;;161.65;73.57;;;;;;;;;;8288798;28;20423;-70
2021/03/31 17:29:29;;;;;;;76.18;37.42;;;;;;;;;;8290277;28;20066;-70
2021/03/31 17:33:37;;;;;;;37.13;18.77;;;;;;;;;;8290041;28;20506;-69
2021/03/31 17:37:53;;;;;;;25.17;10.75;;;;;;;;;;8290212;28;20477;-70
2021/03/31 17:42:01;;;;;;;31.20;16.33;;;;;;;;;;8292400;28;20162;-70
2021/03/31 17:46:11;;;;;;;35.90;18.13;;;;;;;;;;8289669;28;20052;-70
2021/03/31 17:50:22;;;;;;;24.83;10.70;;;;;;;;;;8287156;28;20355;-69
2021/03/31 17:54:32;;;;;;;17.45;6.90;;;;;;;;;;8287234;28;20075;-70
2021/03/31 17:58:41;;;;;;;21.00;7.22;;;;;;;;;;8287394;28;20493;-70
2021/03/31 18:02:53;;;;;;;23.15;10.80;;;;;;;;;;8289779;28;20498;-70
2021/03/31 18:07:04;;;;;;;36.50;14.63;;;;;;;;;;8288817;28;20129;-70
2021/03/31 18:11:13;;;;;;;42.35;19.33;;;;;;;;;;8289412;28;20056;-71
2021/03/31 18:15:33;;;;;;;31.33;11.75;;;;;;;;;;8293295;28;20357;-70
2021/03/31 18:19:42;;;;;;;45.10;17.58;;;;;;;;;;8296136;28;20379;-70
2021/03/31 18:23:52;;;;;;;35.42;14.52;;;;;;;;;;8296071;28;20470;-70
2021/03/31 18:28:07;;;;;;;47.63;20.17;;;;;;;;;;8296302;28;20344;-69
2021/03/31 18:32:18;;;;;;;48.80;16.30;;;;;;;;;;8294588;28;20094;-70
2021/03/31 18:36:30;;;;;;;38.20;15.00;;;;;;;;;;8295615;28;20452;-70
2021/03/31 18:40:56;;;;;;;34.70;14.85;;;;;;;;;;8295734;28;20455;-70
2021/03/31 18:45:25;;;;;;;53.90;19.42;;;;;;;;;;8296961;28;20063;-70
2021/03/31 18:49:35;;;;;;;58.30;22.85;;;;;;;;;;8295931;28;20463;-70
2021/03/31 18:53:44;;;;;;;98.32;36.28;;;;;;;;;;8294607;28;20455;-70
2021/03/31 18:57:54;;;;;;;91.32;34.50;;;;;;;;;;8295865;28;21088;-70
2021/03/31 19:02:03;;;;;;;69.75;32.55;;;;;;;;;;8294759;28;20463;-71
2021/03/31 19:06:15;;;;;;;35.38;20.20;;;;;;;;;;8295422;28;20067;-70
2021/03/31 19:14:55;;;;;;;51.73;28.53;;;;;;;;;;8294889;28;20068;-70
2021/03/31 19:19:08;;;;;;;43.05;21.75;;;;;;;;;;8297199;28;20397;-70
2021/03/31 19:23:18;;;;;;;47.88;24.25;;;;;;;;;;8295331;28;20378;-69
2021/03/31 19:27:30;;;;;;;44.72;23.35;;;;;;;;;;8291724;28;20344;-69
2021/03/31 19:31:41;;;;;;;31.90;16.80;;;;;;;;;;8294257;28;20474;-70
2021/03/31 19:35:49;;;;;;;;;;;;;;;;;;8292966;28;20357;-69
2021/03/31 19:39:58;;;;;;;31.05;15.45;;;;;;;;;;8292757;28;20357;-70
2021/03/31 19:44:10;;;;;;;37.40;19.92;;;;;;;;;;8294378;28;20554;-70
2021/03/31 19:48:19;;;;;;;33.65;16.67;;;;;;;;;;8293848;28;20455;-70
2021/03/31 19:52:32;;;;;;;38.10;19.52;;;;;;;;;;8293165;28;20486;-70
2021/03/31 19:56:41;;;;;;;44.00;21.63;;;;;;;;;;8292895;28;20070;-70
2021/03/31 20:00:50;;;;;;;36.00;18.45;;;;;;;;;;8292132;28;20483;-70
2021/03/31 20:04:59;;;;;;;35.65;19.00;;;;;;;;;;8293978;28;20339;-69
2021/03/31 20:09:08;;;;;;;43.47;20.50;;;;;;;;;;8293549;28;20074;-72
2021/03/31 20:13:17;;;;;;;49.92;22.75;;;;;;;;;;8293925;28;20447;-70
2021/03/31 20:17:27;;;;;;;62.47;24.88;;;;;;;;;;8293193;28;20387;-69
2021/03/31 20:21:38;;;;;;;50.85;23.52;;;;;;;;;;8293628;28;20490;-70
2021/03/31 20:25:48;;;;;;;50.70;24.20;;;;;;;;;;8293071;28;20466;-70
2021/03/31 20:30:00;;;;;;;51.17;24.20;;;;;;;;;;8293387;28;20060;-70
2021/03/31 20:34:18;;;;;;;63.13;27.15;;;;;;;;;;8292622;28;20374;-69
2021/03/31 20:38:29;;;;;;;64.72;27.27;;;;;;;;;;8289837;28;20351;-70
2021/03/31 20:42:40;;;;;;;61.05;26.40;;;;;;;;;;8290464;28;20355;-70
2021/03/31 20:46:49;;;;;;;61.67;29.17;;;;;;;;;;8292937;28;20481;-69
2021/03/31 20:50:59;;;;;;;61.80;27.30;;;;;;;;;;8290063;28;20463;-69
2021/03/31 20:55:10;;;;;;;60.90;26.15;;;;;;;;;;8290486;28;20056;-70
2021/03/31 20:59:20;;;;;;;67.55;26.25;;;;;;;;;;8289496;28;20486;-69
2021/03/31 21:03:30;;;;;;;60.63;26.23;;;;;;;;;;8294651;28;20451;-69
2021/03/31 21:07:43;;;;;;;51.72;24.23;;;;;;;;;;8293731;28;20393;-70
2021/03/31 21:11:54;;;;;;;61.08;24.98;;;;;;;;;;8289677;28;20378;-69
2021/03/31 21:16:04;;;;;;;54.65;24.25;;;;;;;;;;8290191;28;20355;-69
2021/03/31 21:20:13;;;;;;;63.80;25.42;;;;;;;;;;8291419;28;20067;-71
2021/03/31 21:24:23;;;;;;;57.92;25.77;;;;;;;;;;8292010;28;20474;-69
2021/03/31 21:28:32;;;;;;;49.75;22.50;;;;;;;;;;8291316;28;20463;-70
2021/03/31 21:32:42;;;;;;;52.88;25.35;;;;;;;;;;8291416;28;20079;-68
2021/03/31 21:36:51;;;;;;;57.20;24.08;;;;;;;;;;8293010;28;20052;-69
2021/03/31 21:41:01;;;;;;;52.70;23.42;;;;;;;;;;8289735;28;20471;-71
2021/03/31 21:45:30;;;;;;;61.70;26.60;;;;;;;;;;8290688;28;20352;-69
2021/03/31 21:49:42;;;;;;;56.03;24.65;;;;;;;;;;8291544;28;20371;-69
2021/03/31 21:53:47;;;;;;;56.80;25.93;;;;;;;;;;8292294;28;20154;-69
2021/03/31 21:57:51;;;;;;;49.38;24.80;;;;;;;;;;8288180;28;20486;-69
2021/03/31 22:01:56;;;;;;;49.75;23.85;;;;;;;;;;8290335;28;20057;-69
2021/03/31 22:06:02;;;;;;;46.35;20.55;;;;;;;;;;8290808;28;20409;-70
2021/03/31 22:10:20;;;;;;;46.88;20.48;;;;;;;;;;8273582;28;20375;-71
2021/03/31 22:14:33;;;;;;;41.03;19.55;;;;;;;;;;8290089;28;20477;-70
2021/03/31 22:18:41;;;;;;;39.45;19.60;;;;;;;;;;8288671;28;20366;-70
2021/03/31 22:22:53;;;;;;;41.10;19.02;;;;;;;;;;8272145;28;20075;-69
2021/03/31 22:26:59;;;;;;;39.13;18.02;;;;;;;;;;8287973;28;20075;-70
2021/03/31 22:31:04;;;;;;;35.83;17.02;;;;;;;;;;8289685;28;20332;-70
2021/03/31 22:35:16;;;;;;;34.83;17.30;;;;;;;;;;8288278;28;20456;-70
2021/03/31 22:39:21;;;;;;;34.72;16.92;;;;;;;;;;8288321;28;20525;-70
2021/03/31 22:43:26;;;;;;;41.60;19.48;;;;;;;;;;8272113;28;20475;-70
2021/03/31 22:47:30;;;;;;;47.25;19.38;;;;;;;;;;8289137;28;20454;-70
2021/03/31 22:51:36;;;;;;;39.80;17.42;;;;;;;;;;8272679;28;20106;-69
2021/03/31 22:55:40;;;;;;;30.60;15.57;;;;;;;;;;8288605;28;20419;-70
2021/03/31 22:59:44;;;;;;;38.10;18.00;;;;;;;;;;8291309;28;20459;-70
2021/03/31 23:03:48;;;;;;;41.20;20.05;;;;;;;;;;8292943;28;20107;-70
2021/03/31 23:07:55;;;;;;;38.47;17.73;;;;;;;;;;8295177;28;20049;-70
2021/03/31 23:12:00;;;;;;;32.58;16.05;;;;;;;;;;8295701;28;20466;-69
2021/03/31 23:16:25;;;;;;;33.25;14.90;;;;;;;;;;8293539;28;20340;-69
2021/03/31 23:20:29;;;;;;;26.20;13.75;;;;;;;;;;8294534;28;20415;-70
2021/03/31 23:24:34;;;;;;;28.65;14.07;;;;;;;;;;8294464;28;20455;-69
2021/03/31 23:28:38;;;;;;;29.77;13.70;;;;;;;;;;8295256;28;20347;-69
2021/03/31 23:32:44;;;;;;;23.95;12.45;;;;;;;;;;8294505;28;20497;-69
2021/03/31 23:36:48;;;;;;;27.00;12.95;;;;;;;;;;8294226;28;20359;-70
2021/03/31 23:40:52;;;;;;;23.63;11.88;;;;;;;;;;8293909;28;20456;-70
2021/03/31 23:44:57;;;;;;;30.27;13.05;;;;;;;;;;8295320;28;20459;-70
2021/03/31 23:49:02;;;;;;;25.02;12.07;;;;;;;;;;8293471;28;20071;-69
2021/03/31 23:53:10;;;;;;;27.85;12.15;;;;;;;;;;8295408;28;20343;-69
2021/03/31 23:57:14;;;;;;;25.35;11.95;;;;;;;;;;8294691;28;20436;-69
